West Winfield, New York
Current Conditions -  °F | °C
As of 9:53 AM on Tuesday 21 Oct 2014 (Local Time) from KRME Reporting Station
Overcast Overcast  
Wind Chill: 50°   Ceiling: 5500
Heat Index: 50°   Visibility: 10mi
Dew Point: 45°   Wind: 6mph
Humidity: 83%   Direction: 120°ESE
Pressure: 29.89"   Gusts: NA
Location:  42.89°N, 75.19°W
Report Text: KRME 211353Z 12005KT 10SM BKN055 OVC070 10/07 A2989 RMK AO2 RAE18 SLP122 P0000 T01000072
Loading
Personal Weather Stations






























Interactive Weather Map
Tropical Storm Tracking
New forecast layout! Learn more

10-Day Weather Forecast

Advertisements
Track Severe Weather on mobile